createdAt,value
2022-08-26T00:02:13.470Z,13.30
2022-08-26T00:04:44.508Z,13.90
2022-08-26T00:07:38.189Z,13.07
2022-08-26T00:10:08.025Z,13.50
2022-08-26T00:12:37.881Z,12.27
2022-08-26T00:15:08.901Z,12.55
2022-08-26T00:17:37.494Z,13.93
2022-08-26T00:20:11.727Z,11.48
2022-08-26T00:22:40.001Z,17.83
2022-08-26T00:25:10.894Z,15.50
2022-08-26T00:27:40.962Z,11.45
2022-08-26T00:30:14.117Z,13.15
2022-08-26T00:32:46.273Z,15.63
2022-08-26T00:35:15.291Z,14.65
2022-08-26T00:37:44.597Z,15.07
2022-08-26T00:40:21.412Z,13.15
2022-08-26T00:42:51.150Z,16.80
2022-08-26T00:45:19.661Z,14.02
2022-08-26T00:47:52.189Z,10.75
2022-08-26T00:50:25.065Z,12.45
2022-08-26T00:52:56.612Z,14.38
2022-08-26T00:55:34.520Z,13.52
2022-08-26T00:58:08.698Z,15.63
2022-08-26T01:00:37.178Z,10.98
2022-08-26T01:03:07.460Z,17.02
2022-08-26T01:05:40.640Z,19.13
2022-08-26T01:08:11.393Z,13.95
2022-08-26T01:10:40.352Z,12.45
2022-08-26T01:13:12.390Z,11.95
2022-08-26T01:15:45.742Z,14.43
2022-08-26T01:18:15.078Z,11.93
2022-08-26T01:20:57.715Z,10.18
2022-08-26T01:23:32.782Z,15.00
2022-08-26T01:26:06.711Z,18.15
2022-08-26T01:28:36.835Z,12.30
2022-08-26T01:31:09.038Z,12.95
2022-08-26T01:33:51.826Z,13.43
2022-08-26T01:36:21.764Z,16.08
2022-08-26T01:38:51.362Z,15.07
2022-08-26T01:41:27.250Z,15.00
2022-08-26T01:43:58.890Z,15.30
2022-08-26T01:46:29.618Z,12.82
2022-08-26T01:49:02.674Z,15.57
2022-08-26T01:51:32.640Z,14.48
2022-08-26T01:54:02.202Z,14.43
2022-08-26T01:56:36.603Z,13.80
2022-08-26T01:59:10.757Z,14.30
2022-08-26T02:01:40.552Z,12.75
2022-08-26T02:04:23.814Z,13.57
2022-08-26T02:06:53.815Z,15.35
2022-08-26T02:09:25.381Z,12.25
2022-08-26T02:11:55.400Z,14.88
2022-08-26T02:14:29.273Z,16.77
2022-08-26T02:16:58.446Z,13.50
2022-08-26T02:19:32.901Z,15.27
2022-08-26T02:22:05.359Z,17.73
2022-08-26T02:24:50.539Z,13.02
2022-08-26T02:27:23.705Z,18.20
2022-08-26T02:29:57.020Z,14.27
2022-08-26T02:32:26.034Z,12.13
2022-08-26T02:35:02.014Z,13.90
2022-08-26T02:37:32.187Z,11.25
2022-08-26T02:40:05.916Z,15.27
2022-08-26T02:42:34.273Z,12.40
2022-08-26T02:45:03.531Z,14.45
2022-08-26T02:47:34.402Z,12.90
2022-08-26T02:50:03.002Z,13.05
2022-08-26T02:52:31.206Z,11.88
2022-08-26T02:55:01.250Z,11.85
2022-08-26T02:57:32.076Z,16.85
2022-08-26T03:00:01.723Z,17.60
2022-08-26T03:02:31.103Z,12.65
2022-08-26T03:05:02.257Z,13.18
2022-08-26T03:07:31.220Z,17.85
2022-08-26T03:09:59.559Z,10.57
2022-08-26T03:12:27.875Z,15.65
2022-08-26T03:14:57.650Z,13.45
2022-08-26T03:17:26.906Z,14.05
2022-08-26T03:19:57.286Z,14.15
2022-08-26T03:22:27.117Z,13.43
2022-08-26T03:24:55.649Z,16.10
2022-08-26T03:27:23.872Z,11.10
2022-08-26T03:30:11.827Z,15.85
2022-08-26T03:32:41.771Z,14.70
2022-08-26T03:35:11.639Z,14.27
2022-08-26T03:37:40.794Z,12.75
2022-08-26T03:40:11.573Z,12.35
2022-08-26T03:42:41.680Z,15.52
2022-08-26T03:45:16.264Z,14.52
2022-08-26T03:47:47.508Z,17.20
2022-08-26T03:50:22.653Z,14.75
2022-08-26T03:52:52.631Z,15.50
2022-08-26T03:55:24.284Z,13.35
2022-08-26T03:57:52.774Z,18.60
2022-08-26T04:00:21.963Z,16.45
2022-08-26T04:02:53.410Z,15.55
2022-08-26T04:05:23.553Z,14.50
2022-08-26T04:07:52.402Z,14.75
2022-08-26T04:10:26.397Z,15.05
2022-08-26T04:13:00.705Z,13.23
2022-08-26T04:15:29.297Z,18.85
2022-08-26T04:17:59.070Z,13.52
2022-08-26T04:20:27.836Z,14.27
2022-08-26T04:22:56.438Z,13.82
2022-08-26T04:25:25.762Z,17.67
2022-08-26T04:27:54.928Z,14.35
2022-08-26T04:30:23.183Z,18.35
2022-08-26T04:32:52.231Z,13.38
2022-08-26T04:35:26.006Z,14.73
2022-08-26T04:37:56.061Z,14.68
2022-08-26T04:40:27.540Z,13.88
2022-08-26T04:42:56.482Z,14.32
2022-08-26T04:45:25.473Z,17.90
2022-08-26T04:47:56.272Z,15.68
2022-08-26T04:50:26.978Z,13.13
2022-08-26T04:52:56.112Z,16.13
2022-08-26T04:55:38.619Z,16.52
2022-08-26T04:58:10.462Z,17.23
2022-08-26T05:00:39.915Z,13.63
2022-08-26T05:03:10.284Z,13.05
2022-08-26T05:05:42.466Z,14.45
2022-08-26T05:08:12.434Z,14.00
2022-08-26T05:10:42.039Z,13.95
2022-08-26T05:13:15.114Z,13.23
2022-08-26T05:15:45.212Z,16.52
2022-08-26T05:18:16.394Z,13.00
2022-08-26T05:20:49.663Z,14.30
2022-08-26T05:23:19.845Z,13.88
2022-08-26T05:25:53.603Z,18.95
2022-08-26T05:28:24.199Z,16.15
2022-08-26T05:30:53.265Z,19.90
2022-08-26T05:33:21.973Z,14.73
2022-08-26T05:35:51.851Z,14.63
2022-08-26T05:38:22.860Z,21.35
2022-08-26T05:40:53.106Z,14.55
2022-08-26T05:43:22.187Z,21.45
2022-08-26T05:45:51.874Z,17.98
2022-08-26T05:48:24.478Z,18.63
2022-08-26T05:50:54.749Z,16.73
2022-08-26T05:53:26.028Z,17.23
2022-08-26T05:55:55.898Z,15.18
2022-08-26T05:58:25.048Z,18.48
2022-08-26T06:01:01.323Z,20.48
2022-08-26T06:03:33.887Z,17.23
2022-08-26T06:06:06.699Z,18.83
2022-08-26T06:08:35.783Z,16.02
2022-08-26T06:11:07.474Z,17.23
2022-08-26T06:13:41.613Z,19.25
2022-08-26T06:16:13.200Z,17.60
2022-08-26T06:18:44.254Z,17.20
2022-08-26T06:21:18.476Z,14.35
2022-08-26T06:24:06.375Z,15.80
2022-08-26T06:26:36.705Z,14.60
2022-08-26T06:29:06.639Z,15.15
2022-08-26T06:31:38.164Z,20.77
2022-08-26T06:34:10.737Z,20.02
2022-08-26T06:36:44.707Z,19.58
2022-08-26T06:39:16.192Z,18.10
2022-08-26T06:41:45.706Z,24.27
2022-08-26T06:44:19.427Z,21.30
2022-08-26T06:46:50.204Z,18.35
2022-08-26T06:49:20.471Z,27.20
2022-08-26T06:51:58.916Z,25.17
2022-08-26T06:54:27.948Z,25.05
2022-08-26T06:56:57.483Z,17.52
2022-08-26T06:59:26.113Z,19.55
2022-08-26T07:01:55.115Z,25.75
2022-08-26T07:04:24.659Z,18.20
2022-08-26T07:06:53.958Z,19.77
2022-08-26T07:09:26.704Z,17.48
2022-08-26T07:11:57.151Z,15.80
2022-08-26T07:14:26.157Z,21.23
2022-08-26T07:16:55.767Z,17.35
2022-08-26T07:19:29.773Z,18.70
2022-08-26T07:22:01.887Z,16.83
2022-08-26T07:24:32.913Z,14.25
2022-08-26T07:27:02.841Z,15.32
2022-08-26T07:29:31.541Z,17.27
2022-08-26T07:32:00.184Z,24.13
2022-08-26T07:34:28.730Z,17.20
2022-08-26T07:36:58.823Z,15.65
2022-08-26T07:39:28.545Z,16.20
2022-08-26T07:42:01.684Z,14.88
2022-08-26T07:44:36.829Z,18.65
2022-08-26T07:47:10.046Z,22.15
2022-08-26T07:49:52.992Z,15.32
2022-08-26T07:52:26.391Z,14.15
2022-08-26T07:54:56.621Z,12.85
2022-08-26T07:57:26.613Z,16.13
2022-08-26T07:59:56.039Z,15.65
2022-08-26T08:02:27.115Z,15.07
2022-08-26T08:04:56.769Z,16.08
2022-08-26T08:07:38.784Z,14.85
2022-08-26T08:10:16.298Z,14.73
2022-08-26T08:12:46.207Z,16.58
2022-08-26T08:15:15.792Z,21.55
2022-08-26T08:17:44.810Z,12.98
2022-08-26T08:20:15.078Z,16.20
2022-08-26T08:22:44.078Z,14.50
2022-08-26T08:25:13.933Z,21.88
2022-08-26T08:27:45.791Z,15.75
2022-08-26T08:30:22.607Z,20.35
2022-08-26T08:32:51.333Z,15.75
2022-08-26T08:35:22.400Z,16.38
2022-08-26T08:37:54.381Z,17.55
2022-08-26T08:40:25.595Z,15.70
2022-08-26T08:43:00.721Z,18.15
2022-08-26T08:45:38.306Z,13.45
2022-08-26T08:48:15.201Z,16.17
2022-08-26T08:50:47.390Z,16.02
2022-08-26T08:53:20.384Z,14.05
2022-08-26T08:56:08.765Z,15.02
2022-08-26T08:58:51.449Z,12.05
2022-08-26T09:01:39.358Z,18.23
2022-08-26T09:04:35.107Z,16.38
2022-08-26T09:07:08.304Z,12.65
2022-08-26T09:09:40.780Z,15.02
2022-08-26T09:12:17.004Z,18.23
2022-08-26T09:14:51.056Z,22.73
2022-08-26T09:17:34.275Z,17.73
2022-08-26T09:20:13.479Z,15.32
2022-08-26T09:22:44.339Z,18.50
2022-08-26T09:25:15.779Z,16.02
2022-08-26T09:27:47.746Z,18.52
2022-08-26T09:30:27.510Z,13.20
2022-08-26T09:33:02.529Z,17.35
2022-08-26T09:35:34.270Z,15.25
2022-08-26T09:38:02.990Z,15.80
2022-08-26T09:40:35.407Z,18.83
2022-08-26T09:43:11.970Z,23.88
2022-08-26T09:45:44.462Z,25.08
2022-08-26T09:48:28.981Z,18.02
2022-08-26T09:51:00.526Z,13.73
2022-08-26T09:53:31.544Z,16.88
2022-08-26T09:56:18.589Z,19.05
2022-08-26T09:58:48.940Z,18.10
2022-08-26T10:01:30.694Z,18.38
2022-08-26T10:04:08.265Z,14.95
2022-08-26T10:06:41.616Z,21.75
2022-08-26T10:09:15.008Z,20.30
2022-08-26T10:11:48.883Z,13.38
2022-08-26T10:14:24.397Z,16.45
2022-08-26T10:17:02.716Z,18.08
2022-08-26T10:19:56.275Z,21.08
2022-08-26T10:22:31.460Z,21.35
2022-08-26T10:25:04.884Z,16.15
2022-08-26T10:27:51.359Z,13.90
2022-08-26T10:30:24.266Z,14.93
2022-08-26T10:32:59.072Z,17.95
2022-08-26T10:35:28.027Z,18.80
2022-08-26T10:38:03.935Z,13.93
2022-08-26T10:40:45.174Z,16.52
2022-08-26T10:43:23.525Z,11.98
2022-08-26T10:46:00.340Z,22.77
2022-08-26T10:49:00.357Z,14.80
2022-08-26T10:51:38.553Z,13.50
2022-08-26T10:54:14.495Z,14.70
2022-08-26T10:56:54.275Z,17.20
2022-08-26T10:59:32.286Z,15.20
2022-08-26T11:02:10.000Z,13.65
2022-08-26T11:04:49.166Z,7.88
2022-08-26T11:07:43.377Z,7.30
2022-08-26T11:11:04.853Z,12.02
2022-08-26T11:14:03.315Z,9.27
2022-08-26T11:16:42.796Z,9.73
2022-08-26T11:19:14.235Z,11.55
2022-08-26T11:21:52.492Z,11.43
2022-08-26T11:24:47.133Z,9.20
2022-08-26T11:28:05.238Z,10.80
2022-08-26T11:30:56.956Z,13.77
2022-08-26T11:33:58.245Z,11.63
2022-08-26T11:36:53.311Z,16.33
2022-08-26T11:39:28.678Z,14.05
2022-08-26T11:42:01.238Z,7.80
2022-08-26T11:44:40.620Z,15.57
2022-08-26T11:47:11.297Z,11.63
2022-08-26T11:49:41.178Z,14.55
2022-08-26T11:52:20.969Z,11.70
2022-08-26T11:55:03.367Z,11.50
2022-08-26T11:57:35.642Z,13.25
2022-08-26T12:00:08.332Z,15.63
2022-08-26T12:02:41.514Z,16.90
2022-08-26T12:05:10.201Z,17.08
2022-08-26T12:07:44.097Z,14.55
2022-08-26T12:10:29.822Z,17.60
2022-08-26T12:13:00.437Z,15.63
2022-08-26T12:15:30.200Z,15.15
2022-08-26T12:18:00.358Z,17.08
2022-08-26T12:20:47.975Z,15.80
2022-08-26T12:23:28.165Z,18.77
2022-08-26T12:26:07.295Z,14.95
2022-08-26T12:28:43.610Z,11.82
2022-08-26T12:31:11.922Z,9.70
2022-08-26T12:33:40.471Z,9.35
2022-08-26T12:36:08.794Z,12.18
2022-08-26T12:38:40.388Z,12.95
2022-08-26T12:41:08.803Z,8.05
2022-08-26T12:43:43.224Z,10.75
2022-08-26T12:46:15.337Z,11.40
2022-08-26T12:48:49.000Z,9.73
2022-08-26T12:51:25.910Z,9.38
2022-08-26T12:53:56.120Z,8.98
2022-08-26T12:56:31.547Z,11.38
2022-08-26T12:59:07.675Z,9.32
2022-08-26T13:01:42.871Z,8.63
2022-08-26T13:04:34.448Z,6.55
2022-08-26T13:07:30.080Z,11.60
2022-08-26T13:10:00.929Z,9.45
2022-08-26T13:12:34.424Z,8.30
2022-08-26T13:15:06.429Z,12.35
2022-08-26T13:17:35.865Z,9.95
2022-08-26T13:20:05.016Z,11.40
2022-08-26T13:22:33.434Z,12.32
2022-08-26T13:25:03.023Z,10.45
2022-08-26T13:27:31.265Z,10.95
2022-08-26T13:30:00.294Z,8.25
2022-08-26T13:32:28.917Z,11.35
2022-08-26T13:34:58.729Z,9.35
2022-08-26T13:37:34.735Z,13.88
2022-08-26T13:40:07.473Z,15.73
2022-08-26T13:42:36.098Z,13.10
2022-08-26T13:45:06.193Z,13.20
2022-08-26T13:47:34.402Z,15.70
2022-08-26T13:50:02.869Z,19.05
2022-08-26T13:52:31.305Z,13.80
2022-08-26T13:55:00.790Z,11.90
2022-08-26T13:57:31.327Z,15.70
2022-08-26T14:00:00.107Z,15.20
2022-08-26T14:02:29.027Z,15.57
2022-08-26T14:04:59.607Z,17.58
2022-08-26T14:07:27.831Z,15.70
2022-08-26T14:09:56.059Z,11.75
2022-08-26T14:12:24.419Z,13.88
2022-08-26T14:14:53.943Z,16.88
2022-08-26T14:17:24.460Z,20.83
2022-08-26T14:19:53.630Z,16.23
2022-08-26T14:22:23.408Z,17.02
2022-08-26T14:24:53.755Z,17.20
2022-08-26T14:27:21.936Z,16.50
2022-08-26T14:29:50.224Z,15.00
2022-08-26T14:32:26.166Z,13.23
2022-08-26T14:34:55.383Z,15.68
2022-08-26T14:37:23.837Z,22.02
2022-08-26T14:39:52.821Z,19.33
2022-08-26T14:42:24.567Z,18.90
2022-08-26T14:44:58.357Z,17.60
2022-08-26T14:47:28.015Z,22.42
2022-08-26T14:49:56.266Z,14.48
2022-08-26T14:52:24.900Z,18.60
2022-08-26T14:54:54.950Z,20.83
2022-08-26T14:57:23.954Z,16.27
2022-08-26T14:59:52.185Z,17.20
2022-08-26T15:02:32.910Z,13.68
2022-08-26T15:05:04.405Z,16.35
2022-08-26T15:07:32.788Z,17.42
2022-08-26T15:10:01.144Z,11.93
2022-08-26T15:12:29.325Z,26.35
2022-08-26T15:14:57.474Z,18.98
2022-08-26T15:17:26.210Z,13.60
2022-08-26T15:19:54.399Z,16.52
2022-08-26T15:22:24.191Z,11.90
2022-08-26T15:24:58.173Z,16.70
2022-08-26T15:27:26.562Z,15.30
2022-08-26T15:29:55.125Z,14.38
2022-08-26T15:32:24.260Z,17.77
2022-08-26T15:34:53.158Z,15.85
2022-08-26T15:37:22.843Z,17.67
2022-08-26T15:39:52.022Z,17.05
2022-08-26T15:42:20.870Z,15.93
2022-08-26T15:44:49.862Z,19.17
2022-08-26T15:47:18.376Z,14.20
2022-08-26T15:49:47.907Z,15.45
2022-08-26T15:52:17.417Z,15.45
2022-08-26T15:54:46.926Z,14.77
2022-08-26T15:57:17.599Z,17.13
2022-08-26T15:59:48.259Z,18.08
2022-08-26T16:02:19.517Z,14.70
2022-08-26T16:04:47.771Z,14.75
2022-08-26T16:07:15.986Z,18.95
2022-08-26T16:09:44.340Z,13.77
2022-08-26T16:14:44.499Z,18.27
2022-08-26T16:17:13.070Z,15.57
2022-08-26T16:19:41.249Z,14.80
2022-08-26T16:22:09.445Z,15.63
2022-08-26T16:24:38.389Z,14.10
2022-08-26T16:27:07.471Z,8.32
2022-08-26T16:29:39.756Z,6.10
2022-08-26T16:32:09.120Z,6.22
2022-08-26T16:34:37.289Z,3.92
2022-08-26T16:37:15.322Z,7.30
2022-08-26T16:39:45.088Z,6.30
2022-08-26T16:42:13.568Z,8.98
2022-08-26T16:44:45.262Z,6.43
2022-08-26T16:47:14.367Z,10.48
2022-08-26T16:49:43.830Z,6.93
2022-08-26T16:52:12.737Z,5.28
2022-08-26T16:54:43.553Z,5.75
2022-08-26T16:57:13.429Z,6.03
2022-08-26T16:59:43.175Z,7.88
2022-08-26T17:02:12.435Z,6.75
2022-08-26T17:04:41.702Z,10.18
2022-08-26T17:07:16.374Z,7.43
2022-08-26T17:09:44.551Z,5.35
2022-08-26T17:12:12.799Z,6.18
2022-08-26T17:14:42.437Z,8.30
2022-08-26T17:17:14.169Z,7.72
2022-08-26T17:19:47.099Z,6.57
2022-08-26T17:22:15.909Z,10.05
2022-08-26T17:24:44.195Z,7.10
2022-08-26T17:27:12.876Z,4.90
2022-08-26T17:29:42.435Z,5.97
2022-08-26T17:32:10.622Z,9.68
2022-08-26T17:34:38.890Z,7.45
2022-08-26T17:37:08.251Z,4.85
2022-08-26T17:39:42.423Z,10.80
2022-08-26T17:42:11.745Z,6.25
2022-08-26T17:44:40.452Z,7.57
2022-08-26T17:47:10.000Z,6.07
2022-08-26T17:49:38.235Z,9.68
2022-08-26T17:52:09.681Z,5.20
2022-08-26T17:54:39.673Z,8.07
2022-08-26T17:57:10.692Z,8.15
2022-08-26T17:59:40.946Z,6.25
2022-08-26T18:02:14.741Z,8.07
2022-08-26T18:04:43.052Z,7.95
2022-08-26T18:07:12.033Z,7.97
2022-08-26T18:09:40.606Z,6.35
2022-08-26T18:12:09.565Z,7.82
2022-08-26T18:14:37.904Z,4.60
2022-08-26T18:17:06.186Z,8.45
2022-08-26T18:19:35.762Z,7.15
2022-08-26T18:22:05.723Z,8.43
2022-08-26T18:24:34.817Z,8.93
2022-08-26T18:27:03.034Z,5.47
2022-08-26T18:29:31.242Z,8.38
2022-08-26T18:31:59.495Z,9.38
2022-08-26T18:34:31.639Z,5.53
2022-08-26T18:37:01.607Z,7.32
2022-08-26T18:39:29.909Z,6.93
2022-08-26T18:41:58.092Z,9.90
2022-08-26T18:44:26.371Z,11.48
2022-08-26T18:46:54.713Z,9.60
2022-08-26T18:49:23.191Z,7.75
2022-08-26T18:51:52.403Z,6.28
2022-08-26T18:54:22.495Z,8.35
2022-08-26T18:56:50.919Z,14.95
2022-08-26T18:59:19.285Z,7.93
2022-08-26T19:01:55.065Z,9.05
2022-08-26T19:04:23.340Z,9.25
2022-08-26T19:06:52.865Z,7.68
2022-08-26T19:09:22.967Z,9.63
2022-08-26T19:11:51.279Z,9.77
2022-08-26T19:14:20.689Z,6.88
2022-08-26T19:16:52.361Z,7.53
2022-08-26T19:19:23.814Z,5.50
2022-08-26T19:21:52.682Z,9.52
2022-08-26T19:24:23.164Z,5.95
2022-08-26T19:26:59.996Z,4.90
2022-08-26T19:29:30.807Z,6.68
2022-08-26T19:31:59.735Z,4.32
2022-08-26T19:34:27.975Z,7.70
2022-08-26T19:36:58.279Z,6.88
2022-08-26T19:39:28.149Z,10.55
2022-08-26T19:41:56.541Z,8.88
2022-08-26T19:44:42.936Z,8.02
2022-08-26T19:47:12.929Z,7.55
2022-08-26T19:49:41.122Z,8.20
2022-08-26T19:52:11.013Z,6.22
2022-08-26T19:54:41.217Z,7.38
2022-08-26T19:57:09.420Z,6.07
2022-08-26T19:59:37.648Z,6.30
2022-08-26T20:02:31.652Z,5.88
2022-08-26T20:04:59.848Z,6.18
2022-08-26T20:07:28.024Z,6.57
2022-08-26T20:09:59.333Z,7.45
2022-08-26T20:12:29.208Z,7.10
2022-08-26T20:14:57.456Z,7.07
2022-08-26T20:17:25.623Z,6.90
2022-08-26T20:20:13.302Z,6.72
2022-08-26T20:22:59.579Z,7.57
2022-08-26T20:25:29.456Z,6.65
2022-08-26T20:27:57.635Z,7.50
2022-08-26T20:30:25.814Z,7.63
2022-08-26T20:32:53.969Z,7.68
2022-08-26T20:35:23.819Z,8.50
2022-08-26T20:37:52.118Z,7.95
2022-08-26T20:40:21.314Z,5.85
2022-08-26T20:42:50.926Z,10.68
2022-08-26T20:45:19.272Z,10.10
2022-08-26T20:47:47.503Z,6.35
2022-08-26T20:50:15.736Z,6.65
2022-08-26T20:52:43.930Z,11.32
2022-08-26T20:55:12.926Z,7.13
2022-08-26T20:57:42.039Z,6.30
2022-08-26T21:00:16.244Z,9.50
2022-08-26T21:02:46.250Z,8.93
2022-08-26T21:05:14.466Z,5.88
2022-08-26T21:07:42.728Z,7.65
2022-08-26T21:10:12.508Z,7.18
2022-08-26T21:12:40.727Z,7.07
2022-08-26T21:15:11.774Z,6.35
2022-08-26T21:17:39.985Z,6.22
2022-08-26T21:20:09.495Z,6.53
2022-08-26T21:22:37.723Z,12.15
2022-08-26T21:25:07.212Z,8.88
2022-08-26T21:27:36.158Z,8.05
2022-08-26T21:30:05.143Z,6.43
2022-08-26T21:32:34.760Z,7.40
2022-08-26T21:35:03.048Z,6.43
2022-08-26T21:37:31.302Z,7.72
2022-08-26T21:40:01.853Z,7.80
2022-08-26T21:42:33.553Z,8.70
2022-08-26T21:45:03.250Z,5.97
2022-08-26T21:47:32.609Z,6.28
2022-08-26T21:50:02.413Z,6.43
2022-08-26T21:52:30.678Z,8.73
2022-08-26T21:54:59.702Z,6.72
2022-08-26T21:57:29.849Z,5.80
2022-08-26T21:59:58.482Z,6.70
2022-08-26T22:02:27.010Z,5.88
2022-08-26T22:04:56.383Z,5.03
2022-08-26T22:07:25.968Z,6.38
2022-08-26T22:09:54.143Z,6.43
2022-08-26T22:12:22.310Z,8.30
2022-08-26T22:14:50.493Z,5.97
2022-08-26T22:17:18.730Z,5.45
2022-08-26T22:19:47.570Z,6.18
2022-08-26T22:22:16.463Z,7.20
2022-08-26T22:24:45.965Z,8.68
2022-08-26T22:27:15.333Z,5.97
2022-08-26T22:29:43.712Z,5.47
2022-08-26T22:32:12.511Z,6.75
2022-08-26T22:34:41.828Z,6.47
2022-08-26T22:37:10.033Z,8.10
2022-08-26T22:39:38.731Z,5.93
2022-08-26T22:42:08.369Z,6.95
2022-08-26T22:44:37.550Z,9.60
2022-08-26T22:47:06.231Z,5.50
2022-08-26T22:49:34.428Z,7.30
2022-08-26T22:52:02.861Z,7.50
2022-08-26T22:54:31.146Z,11.02
2022-08-26T22:56:59.420Z,8.48
2022-08-26T22:59:30.131Z,8.57
2022-08-26T23:01:58.347Z,7.72
2022-08-26T23:04:26.555Z,8.57
2022-08-26T23:06:54.936Z,13.65
2022-08-26T23:09:23.142Z,11.10
2022-08-26T23:11:51.328Z,7.88
2022-08-26T23:14:19.999Z,9.52
2022-08-26T23:16:49.877Z,9.45
2022-08-26T23:19:21.527Z,7.75
2022-08-26T23:21:50.605Z,6.72
2022-08-26T23:24:19.423Z,8.18
2022-08-26T23:26:48.165Z,10.05
2022-08-26T23:29:16.710Z,8.15
2022-08-26T23:31:45.520Z,7.25
2022-08-26T23:34:32.699Z,10.73
2022-08-26T23:37:01.686Z,7.63
2022-08-26T23:39:30.264Z,8.82
2022-08-26T23:41:58.618Z,10.45
2022-08-26T23:44:26.958Z,8.45
2022-08-26T23:46:55.311Z,10.15
2022-08-26T23:49:25.892Z,7.07
2022-08-26T23:52:12.522Z,10.40
2022-08-26T23:54:41.631Z,9.57
2022-08-26T23:57:10.912Z,7.65
2022-08-26T23:59:40.190Z,8.75
